sensor_id;sensor_type;location;lat;lon;timestamp;temperature;humidity
5930;DHT22;2990;48.746;9.236;2023-07-08T00:01:40;22.40;1.00
5930;DHT22;2990;48.746;9.236;2023-07-08T00:04:05;22.40;1.00
5930;DHT22;2990;48.746;9.236;2023-07-08T00:06:32;22.40;1.00
5930;DHT22;2990;48.746;9.236;2023-07-08T00:08:58;22.20;1.00
5930;DHT22;2990;48.746;9.236;2023-07-08T00:11:25;22.30;1.00
5930;DHT22;2990;48.746;9.236;2023-07-08T00:13:51;22.30;1.00
5930;DHT22;2990;48.746;9.236;2023-07-08T00:16:18;22.30;1.00
5930;DHT22;2990;48.746;9.236;2023-07-08T00:18:45;22.30;1.00
5930;DHT22;2990;48.746;9.236;2023-07-08T00:21:15;22.40;1.00
5930;DHT22;2990;48.746;9.236;2023-07-08T00:23:48;22.30;1.00
5930;DHT22;2990;48.746;9.236;2023-07-08T00:26:26;22.40;1.00
5930;DHT22;2990;48.746;9.236;2023-07-08T00:28:52;22.40;1.00
5930;DHT22;2990;48.746;9.236;2023-07-08T00:31:18;22.30;1.00
5930;DHT22;2990;48.746;9.236;2023-07-08T00:33:58;22.30;1.00
5930;DHT22;2990;48.746;9.236;2023-07-08T00:36:26;22.40;1.00
5930;DHT22;2990;48.746;9.236;2023-07-08T00:38:51;22.40;1.00
5930;DHT22;2990;48.746;9.236;2023-07-08T00:41:27;22.30;1.00
5930;DHT22;2990;48.746;9.236;2023-07-08T00:43:58;22.30;1.00
5930;DHT22;2990;48.746;9.236;2023-07-08T00:48:55;22.30;1.00
5930;DHT22;2990;48.746;9.236;2023-07-08T00:51:23;22.30;1.00
5930;DHT22;2990;48.746;9.236;2023-07-08T00:53:49;22.20;1.00
5930;DHT22;2990;48.746;9.236;2023-07-08T00:56:24;22.10;1.00
5930;DHT22;2990;48.746;9.236;2023-07-08T00:59:05;22.10;1.00
5930;DHT22;2990;48.746;9.236;2023-07-08T01:01:35;22.10;1.00
5930;DHT22;2990;48.746;9.236;2023-07-08T01:04:09;22.00;1.00
5930;DHT22;2990;48.746;9.236;2023-07-08T01:06:40;22.10;1.00
5930;DHT22;2990;48.746;9.236;2023-07-08T01:09:08;22.20;1.00
5930;DHT22;2990;48.746;9.236;2023-07-08T01:11:37;22.20;1.00
5930;DHT22;2990;48.746;9.236;2023-07-08T01:14:05;22.20;1.00
5930;DHT22;2990;48.746;9.236;2023-07-08T01:16:31;22.10;1.00
5930;DHT22;2990;48.746;9.236;2023-07-08T01:19:00;22.10;1.00
5930;DHT22;2990;48.746;9.236;2023-07-08T01:24:09;21.90;1.00
5930;DHT22;2990;48.746;9.236;2023-07-08T01:26:42;21.90;1.00
5930;DHT22;2990;48.746;9.236;2023-07-08T01:29:10;21.80;1.00
5930;DHT22;2990;48.746;9.236;2023-07-08T01:31:35;21.80;1.00
5930;DHT22;2990;48.746;9.236;2023-07-08T01:34:01;21.70;1.00
5930;DHT22;2990;48.746;9.236;2023-07-08T01:36:30;21.70;1.00
5930;DHT22;2990;48.746;9.236;2023-07-08T01:38:56;21.70;1.00
5930;DHT22;2990;48.746;9.236;2023-07-08T01:41:22;21.80;1.00
5930;DHT22;2990;48.746;9.236;2023-07-08T01:43:47;21.60;1.00
5930;DHT22;2990;48.746;9.236;2023-07-08T01:46:24;21.60;1.00
5930;DHT22;2990;48.746;9.236;2023-07-08T01:48:56;21.60;1.00
5930;DHT22;2990;48.746;9.236;2023-07-08T01:51:23;21.60;1.00
5930;DHT22;2990;48.746;9.236;2023-07-08T01:57:11;21.60;1.00
5930;DHT22;2990;48.746;9.236;2023-07-08T01:59:36;21.50;1.00
5930;DHT22;2990;48.746;9.236;2023-07-08T02:02:02;21.50;1.00
5930;DHT22;2990;48.746;9.236;2023-07-08T02:04:29;21.50;1.00
5930;DHT22;2990;48.746;9.236;2023-07-08T02:06:57;21.50;1.00
5930;DHT22;2990;48.746;9.236;2023-07-08T02:09:23;21.50;1.00
5930;DHT22;2990;48.746;9.236;2023-07-08T02:11:50;21.40;1.00
5930;DHT22;2990;48.746;9.236;2023-07-08T02:14:16;21.40;1.00
5930;DHT22;2990;48.746;9.236;2023-07-08T02:16:42;21.30;1.00
5930;DHT22;2990;48.746;9.236;2023-07-08T02:19:08;21.40;1.00
5930;DHT22;2990;48.746;9.236;2023-07-08T02:21:34;21.40;1.00
5930;DHT22;2990;48.746;9.236;2023-07-08T02:24:00;21.30;1.00
5930;DHT22;2990;48.746;9.236;2023-07-08T02:26:26;21.40;1.00
5930;DHT22;2990;48.746;9.236;2023-07-08T02:28:52;21.30;1.00
5930;DHT22;2990;48.746;9.236;2023-07-08T02:31:17;21.30;1.00
5930;DHT22;2990;48.746;9.236;2023-07-08T02:33:43;21.20;1.00
5930;DHT22;2990;48.746;9.236;2023-07-08T02:36:08;21.20;1.00
5930;DHT22;2990;48.746;9.236;2023-07-08T02:38:34;21.10;1.00
5930;DHT22;2990;48.746;9.236;2023-07-08T02:41:00;21.10;1.00
5930;DHT22;2990;48.746;9.236;2023-07-08T02:43:25;21.00;1.00
5930;DHT22;2990;48.746;9.236;2023-07-08T02:45:51;21.00;1.00
5930;DHT22;2990;48.746;9.236;2023-07-08T02:48:18;20.90;1.00
5930;DHT22;2990;48.746;9.236;2023-07-08T02:50:43;20.70;1.00
5930;DHT22;2990;48.746;9.236;2023-07-08T02:56:34;20.80;1.00
5930;DHT22;2990;48.746;9.236;2023-07-08T02:58:59;20.90;1.00
5930;DHT22;2990;48.746;9.236;2023-07-08T03:07:59;20.80;1.00
5930;DHT22;2990;48.746;9.236;2023-07-08T03:10:25;20.80;1.00
5930;DHT22;2990;48.746;9.236;2023-07-08T03:12:51;20.80;1.00
5930;DHT22;2990;48.746;9.236;2023-07-08T03:15:16;20.70;1.00
5930;DHT22;2990;48.746;9.236;2023-07-08T03:17:42;20.80;1.00
5930;DHT22;2990;48.746;9.236;2023-07-08T03:20:09;20.60;1.00
5930;DHT22;2990;48.746;9.236;2023-07-08T03:22:36;20.60;1.00
5930;DHT22;2990;48.746;9.236;2023-07-08T03:25:02;20.40;1.00
5930;DHT22;2990;48.746;9.236;2023-07-08T03:27:27;20.40;1.00
5930;DHT22;2990;48.746;9.236;2023-07-08T03:29:53;20.40;1.00
5930;DHT22;2990;48.746;9.236;2023-07-08T03:32:18;20.40;1.00
5930;DHT22;2990;48.746;9.236;2023-07-08T03:34:44;20.40;1.00
5930;DHT22;2990;48.746;9.236;2023-07-08T03:37:10;20.30;1.00
5930;DHT22;2990;48.746;9.236;2023-07-08T03:39:35;20.40;1.00
5930;DHT22;2990;48.746;9.236;2023-07-08T03:42:01;20.30;1.00
5930;DHT22;2990;48.746;9.236;2023-07-08T03:44:28;20.30;1.00
5930;DHT22;2990;48.746;9.236;2023-07-08T03:46:54;20.30;1.00
5930;DHT22;2990;48.746;9.236;2023-07-08T03:49:21;20.30;1.00
5930;DHT22;2990;48.746;9.236;2023-07-08T03:51:50;20.20;1.00
5930;DHT22;2990;48.746;9.236;2023-07-08T03:54:18;20.40;1.00
5930;DHT22;2990;48.746;9.236;2023-07-08T03:56:44;20.40;1.00
5930;DHT22;2990;48.746;9.236;2023-07-08T03:59:10;20.40;1.00
5930;DHT22;2990;48.746;9.236;2023-07-08T04:01:36;20.50;1.00
5930;DHT22;2990;48.746;9.236;2023-07-08T04:04:02;20.50;1.00
5930;DHT22;2990;48.746;9.236;2023-07-08T04:06:28;20.50;1.00
5930;DHT22;2990;48.746;9.236;2023-07-08T04:08:56;20.50;1.00
5930;DHT22;2990;48.746;9.236;2023-07-08T04:11:23;20.50;1.00
5930;DHT22;2990;48.746;9.236;2023-07-08T04:13:50;20.50;1.00
5930;DHT22;2990;48.746;9.236;2023-07-08T04:16:19;20.50;1.00
5930;DHT22;2990;48.746;9.236;2023-07-08T04:18:46;20.60;1.00
5930;DHT22;2990;48.746;9.236;2023-07-08T04:21:12;20.70;1.00
5930;DHT22;2990;48.746;9.236;2023-07-08T04:23:37;20.60;1.00
5930;DHT22;2990;48.746;9.236;2023-07-08T04:26:03;20.60;1.00
5930;DHT22;2990;48.746;9.236;2023-07-08T04:28:28;20.60;1.00
5930;DHT22;2990;48.746;9.236;2023-07-08T04:30:54;20.60;1.00
5930;DHT22;2990;48.746;9.236;2023-07-08T04:33:20;20.70;1.00
5930;DHT22;2990;48.746;9.236;2023-07-08T04:35:45;20.80;1.00
5930;DHT22;2990;48.746;9.236;2023-07-08T04:38:25;20.90;1.00
5930;DHT22;2990;48.746;9.236;2023-07-08T04:40:52;21.00;1.00
5930;DHT22;2990;48.746;9.236;2023-07-08T04:43:18;21.10;1.00
5930;DHT22;2990;48.746;9.236;2023-07-08T04:45:47;21.10;1.00
5930;DHT22;2990;48.746;9.236;2023-07-08T04:48:17;21.20;1.00
5930;DHT22;2990;48.746;9.236;2023-07-08T04:50:48;21.40;1.00
5930;DHT22;2990;48.746;9.236;2023-07-08T04:53:14;21.50;1.00
5930;DHT22;2990;48.746;9.236;2023-07-08T04:55:45;21.60;1.00
5930;DHT22;2990;48.746;9.236;2023-07-08T04:58:11;21.70;1.00
5930;DHT22;2990;48.746;9.236;2023-07-08T05:00:37;21.80;1.00
5930;DHT22;2990;48.746;9.236;2023-07-08T05:03:03;21.70;1.00
5930;DHT22;2990;48.746;9.236;2023-07-08T05:05:28;21.80;1.00
5930;DHT22;2990;48.746;9.236;2023-07-08T05:07:54;21.90;1.00
5930;DHT22;2990;48.746;9.236;2023-07-08T05:10:20;21.90;1.00
5930;DHT22;2990;48.746;9.236;2023-07-08T05:12:46;21.90;1.00
5930;DHT22;2990;48.746;9.236;2023-07-08T05:15:13;22.00;1.00
5930;DHT22;2990;48.746;9.236;2023-07-08T05:17:39;22.10;1.00
5930;DHT22;2990;48.746;9.236;2023-07-08T05:20:07;22.20;1.00
5930;DHT22;2990;48.746;9.236;2023-07-08T05:22:33;22.20;1.00
5930;DHT22;2990;48.746;9.236;2023-07-08T05:24:58;22.30;1.00
5930;DHT22;2990;48.746;9.236;2023-07-08T05:27:24;22.30;1.00
5930;DHT22;2990;48.746;9.236;2023-07-08T05:29:50;22.40;1.00
5930;DHT22;2990;48.746;9.236;2023-07-08T05:32:17;22.20;1.00
5930;DHT22;2990;48.746;9.236;2023-07-08T05:34:43;22.10;1.00
5930;DHT22;2990;48.746;9.236;2023-07-08T05:37:09;22.00;1.00
5930;DHT22;2990;48.746;9.236;2023-07-08T05:39:35;22.00;1.00
5930;DHT22;2990;48.746;9.236;2023-07-08T05:42:00;22.00;1.00
5930;DHT22;2990;48.746;9.236;2023-07-08T05:44:26;21.90;1.00
5930;DHT22;2990;48.746;9.236;2023-07-08T05:46:51;21.90;1.00
5930;DHT22;2990;48.746;9.236;2023-07-08T05:49:17;21.90;1.00
5930;DHT22;2990;48.746;9.236;2023-07-08T05:51:46;22.00;1.00
5930;DHT22;2990;48.746;9.236;2023-07-08T05:54:12;22.10;1.00
5930;DHT22;2990;48.746;9.236;2023-07-08T05:56:37;22.30;1.00
5930;DHT22;2990;48.746;9.236;2023-07-08T05:59:03;22.40;1.00
5930;DHT22;2990;48.746;9.236;2023-07-08T06:01:29;22.60;1.00
5930;DHT22;2990;48.746;9.236;2023-07-08T06:03:55;22.40;1.00
5930;DHT22;2990;48.746;9.236;2023-07-08T06:06:24;22.60;1.00
5930;DHT22;2990;48.746;9.236;2023-07-08T06:08:49;22.60;1.00
5930;DHT22;2990;48.746;9.236;2023-07-08T06:11:15;22.60;1.00
5930;DHT22;2990;48.746;9.236;2023-07-08T06:13:41;22.70;1.00
5930;DHT22;2990;48.746;9.236;2023-07-08T06:16:06;22.70;1.00
5930;DHT22;2990;48.746;9.236;2023-07-08T06:18:32;22.70;1.00
5930;DHT22;2990;48.746;9.236;2023-07-08T06:20:58;22.60;1.00
5930;DHT22;2990;48.746;9.236;2023-07-08T06:23:24;22.90;1.00
5930;DHT22;2990;48.746;9.236;2023-07-08T06:25:50;23.20;1.00
5930;DHT22;2990;48.746;9.236;2023-07-08T06:28:16;23.30;1.00
5930;DHT22;2990;48.746;9.236;2023-07-08T06:30:42;23.40;1.00
5930;DHT22;2990;48.746;9.236;2023-07-08T06:33:08;23.50;1.00
5930;DHT22;2990;48.746;9.236;2023-07-08T06:35:34;23.60;1.00
5930;DHT22;2990;48.746;9.236;2023-07-08T06:37:59;23.50;1.00
5930;DHT22;2990;48.746;9.236;2023-07-08T06:40:25;23.50;1.00
5930;DHT22;2990;48.746;9.236;2023-07-08T06:42:50;23.60;1.00
5930;DHT22;2990;48.746;9.236;2023-07-08T06:45:16;23.60;1.00
5930;DHT22;2990;48.746;9.236;2023-07-08T06:47:41;23.50;1.00
5930;DHT22;2990;48.746;9.236;2023-07-08T06:50:07;23.50;1.00
5930;DHT22;2990;48.746;9.236;2023-07-08T06:52:33;23.50;1.00
5930;DHT22;2990;48.746;9.236;2023-07-08T06:55:07;23.60;1.00
5930;DHT22;2990;48.746;9.236;2023-07-08T06:57:33;23.80;1.00
5930;DHT22;2990;48.746;9.236;2023-07-08T06:59:59;23.80;1.00
5930;DHT22;2990;48.746;9.236;2023-07-08T07:02:25;23.90;1.00
5930;DHT22;2990;48.746;9.236;2023-07-08T07:04:51;23.80;1.00
5930;DHT22;2990;48.746;9.236;2023-07-08T07:07:17;23.70;1.00
5930;DHT22;2990;48.746;9.236;2023-07-08T07:09:42;23.80;1.00
5930;DHT22;2990;48.746;9.236;2023-07-08T07:12:08;23.80;1.00
5930;DHT22;2990;48.746;9.236;2023-07-08T07:14:34;23.70;1.00
5930;DHT22;2990;48.746;9.236;2023-07-08T07:17:00;23.60;1.00
5930;DHT22;2990;48.746;9.236;2023-07-08T07:19:25;23.60;1.00
5930;DHT22;2990;48.746;9.236;2023-07-08T07:21:51;23.60;1.00
5930;DHT22;2990;48.746;9.236;2023-07-08T07:24:17;23.60;1.00
5930;DHT22;2990;48.746;9.236;2023-07-08T07:26:43;23.60;1.00
5930;DHT22;2990;48.746;9.236;2023-07-08T07:29:08;23.70;1.00
5930;DHT22;2990;48.746;9.236;2023-07-08T07:31:34;23.70;1.00
5930;DHT22;2990;48.746;9.236;2023-07-08T07:34:00;23.80;1.00
5930;DHT22;2990;48.746;9.236;2023-07-08T07:36:28;23.90;1.00
5930;DHT22;2990;48.746;9.236;2023-07-08T07:38:54;23.80;1.00
5930;DHT22;2990;48.746;9.236;2023-07-08T07:41:20;24.00;1.00
5930;DHT22;2990;48.746;9.236;2023-07-08T07:43:46;24.10;1.00
5930;DHT22;2990;48.746;9.236;2023-07-08T07:46:12;24.00;1.00
5930;DHT22;2990;48.746;9.236;2023-07-08T07:48:38;24.00;1.00
5930;DHT22;2990;48.746;9.236;2023-07-08T07:51:04;24.00;1.00
5930;DHT22;2990;48.746;9.236;2023-07-08T07:53:30;23.90;1.00
5930;DHT22;2990;48.746;9.236;2023-07-08T07:56:01;24.00;1.00
5930;DHT22;2990;48.746;9.236;2023-07-08T07:58:27;24.00;1.00
5930;DHT22;2990;48.746;9.236;2023-07-08T08:00:53;24.10;1.00
5930;DHT22;2990;48.746;9.236;2023-07-08T08:03:19;24.30;1.00
5930;DHT22;2990;48.746;9.236;2023-07-08T08:05:45;24.50;1.00
5930;DHT22;2990;48.746;9.236;2023-07-08T08:08:13;24.60;1.00
5930;DHT22;2990;48.746;9.236;2023-07-08T08:10:45;24.70;1.00
5930;DHT22;2990;48.746;9.236;2023-07-08T08:13:25;24.70;1.00
5930;DHT22;2990;48.746;9.236;2023-07-08T08:15:59;24.80;1.00
5930;DHT22;2990;48.746;9.236;2023-07-08T08:18:27;24.70;1.00
5930;DHT22;2990;48.746;9.236;2023-07-08T08:21:08;24.90;1.00
5930;DHT22;2990;48.746;9.236;2023-07-08T08:23:42;25.10;1.00
5930;DHT22;2990;48.746;9.236;2023-07-08T08:29:28;25.30;1.00
5930;DHT22;2990;48.746;9.236;2023-07-08T08:31:53;25.50;1.00
5930;DHT22;2990;48.746;9.236;2023-07-08T08:34:19;25.50;1.00
5930;DHT22;2990;48.746;9.236;2023-07-08T08:39:54;25.90;1.00
5930;DHT22;2990;48.746;9.236;2023-07-08T08:42:33;26.20;1.00
5930;DHT22;2990;48.746;9.236;2023-07-08T08:45:00;26.30;1.00
5930;DHT22;2990;48.746;9.236;2023-07-08T08:47:41;26.50;1.00
5930;DHT22;2990;48.746;9.236;2023-07-08T08:52:54;26.40;1.00
5930;DHT22;2990;48.746;9.236;2023-07-08T08:55:21;26.30;1.00
5930;DHT22;2990;48.746;9.236;2023-07-08T08:58:26;26.20;1.00
5930;DHT22;2990;48.746;9.236;2023-07-08T09:01:02;26.40;1.00
5930;DHT22;2990;48.746;9.236;2023-07-08T09:03:42;26.90;1.00
5930;DHT22;2990;48.746;9.236;2023-07-08T09:06:18;27.10;1.00
5930;DHT22;2990;48.746;9.236;2023-07-08T09:08:45;27.40;1.00
5930;DHT22;2990;48.746;9.236;2023-07-08T09:13:56;28.20;1.00
5930;DHT22;2990;48.746;9.236;2023-07-08T09:16:44;28.70;1.00
5930;DHT22;2990;48.746;9.236;2023-07-08T09:19:15;29.10;1.00
5930;DHT22;2990;48.746;9.236;2023-07-08T09:22:34;29.30;1.00
5930;DHT22;2990;48.746;9.236;2023-07-08T09:24:43;29.30;1.00
5930;DHT22;2990;48.746;9.236;2023-07-08T09:27:09;29.20;1.00
5930;DHT22;2990;48.746;9.236;2023-07-08T09:29:35;29.00;1.00
5930;DHT22;2990;48.746;9.236;2023-07-08T09:35:26;28.30;1.00
5930;DHT22;2990;48.746;9.236;2023-07-08T09:37:54;28.20;1.00
5930;DHT22;2990;48.746;9.236;2023-07-08T09:40:29;28.40;1.00
5930;DHT22;2990;48.746;9.236;2023-07-08T09:43:16;28.50;1.00
5930;DHT22;2990;48.746;9.236;2023-07-08T09:45:48;28.60;1.00
5930;DHT22;2990;48.746;9.236;2023-07-08T09:48:34;28.60;1.00
5930;DHT22;2990;48.746;9.236;2023-07-08T09:51:01;28.70;1.00
5930;DHT22;2990;48.746;9.236;2023-07-08T09:53:35;29.00;1.00
5930;DHT22;2990;48.746;9.236;2023-07-08T09:56:03;29.30;1.00
5930;DHT22;2990;48.746;9.236;2023-07-08T09:58:37;29.10;1.00
5930;DHT22;2990;48.746;9.236;2023-07-08T10:18:42;28.00;1.00
5930;DHT22;2990;48.746;9.236;2023-07-08T10:27:02;27.60;1.00
5930;DHT22;2990;48.746;9.236;2023-07-08T10:30:08;27.60;1.00
5930;DHT22;2990;48.746;9.236;2023-07-08T10:36:19;28.20;1.00
5930;DHT22;2990;48.746;9.236;2023-07-08T10:42:53;28.90;1.00
5930;DHT22;2990;48.746;9.236;2023-07-08T11:06:20;30.20;1.00
5930;DHT22;2990;48.746;9.236;2023-07-08T11:09:02;30.50;1.00
5930;DHT22;2990;48.746;9.236;2023-07-08T11:11:56;30.40;1.00
5930;DHT22;2990;48.746;9.236;2023-07-08T11:14:45;30.50;1.00
5930;DHT22;2990;48.746;9.236;2023-07-08T11:17:42;30.50;1.00
5930;DHT22;2990;48.746;9.236;2023-07-08T11:26:50;30.50;1.00
5930;DHT22;2990;48.746;9.236;2023-07-08T11:36:05;30.00;1.00
5930;DHT22;2990;48.746;9.236;2023-07-08T11:38:32;30.20;1.00
5930;DHT22;2990;48.746;9.236;2023-07-08T11:41:04;30.30;1.00
5930;DHT22;2990;48.746;9.236;2023-07-08T11:43:46;30.60;1.00
5930;DHT22;2990;48.746;9.236;2023-07-08T11:46:17;30.80;1.00
5930;DHT22;2990;48.746;9.236;2023-07-08T11:48:50;31.00;1.00
5930;DHT22;2990;48.746;9.236;2023-07-08T11:51:21;31.00;1.00
5930;DHT22;2990;48.746;9.236;2023-07-08T11:57:03;30.90;1.00
5930;DHT22;2990;48.746;9.236;2023-07-08T11:59:32;31.00;1.00
5930;DHT22;2990;48.746;9.236;2023-07-08T12:02:04;31.30;1.00
5930;DHT22;2990;48.746;9.236;2023-07-08T12:04:59;31.10;1.00
5930;DHT22;2990;48.746;9.236;2023-07-08T12:07:31;31.20;1.00
5930;DHT22;2990;48.746;9.236;2023-07-08T12:10:04;31.20;1.00
5930;DHT22;2990;48.746;9.236;2023-07-08T12:12:34;31.10;1.00
5930;DHT22;2990;48.746;9.236;2023-07-08T12:17:39;31.30;1.00
5930;DHT22;2990;48.746;9.236;2023-07-08T12:22:54;31.40;1.00
5930;DHT22;2990;48.746;9.236;2023-07-08T12:25:27;31.60;1.00
5930;DHT22;2990;48.746;9.236;2023-07-08T12:27:53;32.00;1.00
5930;DHT22;2990;48.746;9.236;2023-07-08T12:30:22;32.20;1.00
5930;DHT22;2990;48.746;9.236;2023-07-08T12:32:49;32.40;1.00
5930;DHT22;2990;48.746;9.236;2023-07-08T12:35:42;32.20;1.00
5930;DHT22;2990;48.746;9.236;2023-07-08T12:46:08;32.50;1.00
5930;DHT22;2990;48.746;9.236;2023-07-08T12:59:33;32.90;1.00
5930;DHT22;2990;48.746;9.236;2023-07-08T13:05:22;32.90;1.00
5930;DHT22;2990;48.746;9.236;2023-07-08T13:07:58;32.90;1.00
5930;DHT22;2990;48.746;9.236;2023-07-08T13:10:25;33.00;1.00
5930;DHT22;2990;48.746;9.236;2023-07-08T13:12:55;33.20;1.00
5930;DHT22;2990;48.746;9.236;2023-07-08T13:15:34;33.20;1.00
5930;DHT22;2990;48.746;9.236;2023-07-08T13:18:02;33.20;1.00
5930;DHT22;2990;48.746;9.236;2023-07-08T13:20:28;33.10;1.00
5930;DHT22;2990;48.746;9.236;2023-07-08T13:22:57;33.20;1.00
5930;DHT22;2990;48.746;9.236;2023-07-08T13:25:31;33.20;1.00
5930;DHT22;2990;48.746;9.236;2023-07-08T13:28:01;33.30;1.00
5930;DHT22;2990;48.746;9.236;2023-07-08T13:30:29;33.40;1.00
5930;DHT22;2990;48.746;9.236;2023-07-08T13:36:54;33.40;1.00
5930;DHT22;2990;48.746;9.236;2023-07-08T13:39:27;33.30;1.00
5930;DHT22;2990;48.746;9.236;2023-07-08T13:41:55;33.30;1.00
5930;DHT22;2990;48.746;9.236;2023-07-08T13:51:08;33.50;1.00
5930;DHT22;2990;48.746;9.236;2023-07-08T13:53:43;33.50;1.00
5930;DHT22;2990;48.746;9.236;2023-07-08T13:56:30;33.60;1.00
5930;DHT22;2990;48.746;9.236;2023-07-08T13:59:05;33.50;1.00
5930;DHT22;2990;48.746;9.236;2023-07-08T14:01:33;33.50;1.00
5930;DHT22;2990;48.746;9.236;2023-07-08T14:03:59;33.60;1.00
5930;DHT22;2990;48.746;9.236;2023-07-08T14:06:36;33.60;1.00
5930;DHT22;2990;48.746;9.236;2023-07-08T14:09:14;33.50;1.00
5930;DHT22;2990;48.746;9.236;2023-07-08T14:11:41;33.50;1.00
5930;DHT22;2990;48.746;9.236;2023-07-08T14:14:08;33.50;1.00
5930;DHT22;2990;48.746;9.236;2023-07-08T14:16:36;33.50;1.00
5930;DHT22;2990;48.746;9.236;2023-07-08T14:19:05;33.50;1.00
5930;DHT22;2990;48.746;9.236;2023-07-08T14:21:36;33.60;1.00
5930;DHT22;2990;48.746;9.236;2023-07-08T14:36:50;33.30;1.00
5930;DHT22;2990;48.746;9.236;2023-07-08T14:39:17;33.40;1.00
5930;DHT22;2990;48.746;9.236;2023-07-08T14:41:50;33.40;1.00
5930;DHT22;2990;48.746;9.236;2023-07-08T14:44:23;33.60;1.00
5930;DHT22;2990;48.746;9.236;2023-07-08T14:47:10;33.60;1.00
5930;DHT22;2990;48.746;9.236;2023-07-08T14:49:41;33.60;1.00
5930;DHT22;2990;48.746;9.236;2023-07-08T14:52:07;33.60;1.00
5930;DHT22;2990;48.746;9.236;2023-07-08T14:54:33;33.50;1.00
5930;DHT22;2990;48.746;9.236;2023-07-08T14:56:59;33.60;1.00
5930;DHT22;2990;48.746;9.236;2023-07-08T14:59:28;33.60;1.00
5930;DHT22;2990;48.746;9.236;2023-07-08T15:02:21;33.40;1.00
5930;DHT22;2990;48.746;9.236;2023-07-08T15:04:48;33.10;1.00
5930;DHT22;2990;48.746;9.236;2023-07-08T15:07:21;33.00;1.00
5930;DHT22;2990;48.746;9.236;2023-07-08T15:10:10;32.90;1.00
5930;DHT22;2990;48.746;9.236;2023-07-08T15:12:36;32.90;1.00
5930;DHT22;2990;48.746;9.236;2023-07-08T15:15:02;32.80;1.00
5930;DHT22;2990;48.746;9.236;2023-07-08T15:18:00;32.60;1.00
5930;DHT22;2990;48.746;9.236;2023-07-08T15:20:32;32.60;1.00
5930;DHT22;2990;48.746;9.236;2023-07-08T15:23:14;32.70;1.00
5930;DHT22;2990;48.746;9.236;2023-07-08T15:29:15;32.70;1.00
5930;DHT22;2990;48.746;9.236;2023-07-08T15:31:41;32.80;1.00
5930;DHT22;2990;48.746;9.236;2023-07-08T15:34:27;32.60;1.00
5930;DHT22;2990;48.746;9.236;2023-07-08T15:40:37;33.00;1.00
5930;DHT22;2990;48.746;9.236;2023-07-08T15:43:19;34.70;1.00
5930;DHT22;2990;48.746;9.236;2023-07-08T15:46:15;35.50;1.00
5930;DHT22;2990;48.746;9.236;2023-07-08T15:51:56;35.10;1.00
5930;DHT22;2990;48.746;9.236;2023-07-08T15:54:22;34.30;1.00
5930;DHT22;2990;48.746;9.236;2023-07-08T15:56:50;34.10;1.00
5930;DHT22;2990;48.746;9.236;2023-07-08T15:59:20;34.00;1.00
5930;DHT22;2990;48.746;9.236;2023-07-08T16:01:47;33.80;1.00
5930;DHT22;2990;48.746;9.236;2023-07-08T16:06:44;33.40;1.00
5930;DHT22;2990;48.746;9.236;2023-07-08T16:09:10;33.20;1.00
5930;DHT22;2990;48.746;9.236;2023-07-08T16:11:35;33.10;1.00
5930;DHT22;2990;48.746;9.236;2023-07-08T16:14:01;32.80;1.00
5930;DHT22;2990;48.746;9.236;2023-07-08T16:16:27;32.40;1.00
5930;DHT22;2990;48.746;9.236;2023-07-08T16:18:53;32.30;1.00
5930;DHT22;2990;48.746;9.236;2023-07-08T16:21:19;32.20;1.00
5930;DHT22;2990;48.746;9.236;2023-07-08T16:23:45;32.20;1.00
5930;DHT22;2990;48.746;9.236;2023-07-08T16:26:14;32.00;1.00
5930;DHT22;2990;48.746;9.236;2023-07-08T16:28:46;32.10;1.00
5930;DHT22;2990;48.746;9.236;2023-07-08T16:31:20;31.90;1.00
5930;DHT22;2990;48.746;9.236;2023-07-08T16:33:48;31.70;1.00
5930;DHT22;2990;48.746;9.236;2023-07-08T16:36:16;31.40;1.00
5930;DHT22;2990;48.746;9.236;2023-07-08T16:38:42;31.30;1.00
5930;DHT22;2990;48.746;9.236;2023-07-08T16:41:11;31.20;1.00
5930;DHT22;2990;48.746;9.236;2023-07-08T16:43:38;31.30;1.00
5930;DHT22;2990;48.746;9.236;2023-07-08T16:46:03;31.20;1.00
5930;DHT22;2990;48.746;9.236;2023-07-08T16:48:29;31.10;1.00
5930;DHT22;2990;48.746;9.236;2023-07-08T16:50:54;31.10;1.00
5930;DHT22;2990;48.746;9.236;2023-07-08T16:53:20;30.90;1.00
5930;DHT22;2990;48.746;9.236;2023-07-08T16:55:46;31.00;1.00
5930;DHT22;2990;48.746;9.236;2023-07-08T16:58:13;31.00;1.00
5930;DHT22;2990;48.746;9.236;2023-07-08T17:00:51;31.10;1.00
5930;DHT22;2990;48.746;9.236;2023-07-08T17:03:26;30.90;1.00
5930;DHT22;2990;48.746;9.236;2023-07-08T17:05:52;30.70;1.00
5930;DHT22;2990;48.746;9.236;2023-07-08T17:08:18;30.70;1.00
5930;DHT22;2990;48.746;9.236;2023-07-08T17:10:44;30.70;1.00
5930;DHT22;2990;48.746;9.236;2023-07-08T17:13:10;30.70;1.00
5930;DHT22;2990;48.746;9.236;2023-07-08T17:15:37;30.60;1.00
5930;DHT22;2990;48.746;9.236;2023-07-08T17:18:04;30.50;1.00
5930;DHT22;2990;48.746;9.236;2023-07-08T17:20:36;30.50;1.00
5930;DHT22;2990;48.746;9.236;2023-07-08T17:23:11;30.40;1.00
5930;DHT22;2990;48.746;9.236;2023-07-08T17:25:38;30.30;1.00
5930;DHT22;2990;48.746;9.236;2023-07-08T17:28:03;30.40;1.00
5930;DHT22;2990;48.746;9.236;2023-07-08T17:30:29;30.40;1.00
5930;DHT22;2990;48.746;9.236;2023-07-08T17:32:56;30.30;1.00
5930;DHT22;2990;48.746;9.236;2023-07-08T17:35:23;30.20;1.00
5930;DHT22;2990;48.746;9.236;2023-07-08T17:37:49;30.30;1.00
5930;DHT22;2990;48.746;9.236;2023-07-08T17:40:18;30.10;1.00
5930;DHT22;2990;48.746;9.236;2023-07-08T17:42:44;30.20;1.00
5930;DHT22;2990;48.746;9.236;2023-07-08T17:45:15;30.10;1.00
5930;DHT22;2990;48.746;9.236;2023-07-08T17:47:41;29.90;1.00
5930;DHT22;2990;48.746;9.236;2023-07-08T17:52:39;30.10;1.00
5930;DHT22;2990;48.746;9.236;2023-07-08T17:55:05;30.00;1.00
5930;DHT22;2990;48.746;9.236;2023-07-08T17:57:31;30.00;1.00
5930;DHT22;2990;48.746;9.236;2023-07-08T17:59:57;29.90;1.00
5930;DHT22;2990;48.746;9.236;2023-07-08T18:02:22;29.90;1.00
5930;DHT22;2990;48.746;9.236;2023-07-08T18:04:49;29.90;1.00
5930;DHT22;2990;48.746;9.236;2023-07-08T18:07:14;29.80;1.00
5930;DHT22;2990;48.746;9.236;2023-07-08T18:09:40;29.70;1.00
5930;DHT22;2990;48.746;9.236;2023-07-08T18:12:14;29.70;1.00
5930;DHT22;2990;48.746;9.236;2023-07-08T18:14:45;29.60;1.00
5930;DHT22;2990;48.746;9.236;2023-07-08T18:17:13;29.60;1.00
5930;DHT22;2990;48.746;9.236;2023-07-08T18:19:39;29.50;1.00
5930;DHT22;2990;48.746;9.236;2023-07-08T18:22:31;29.60;1.00
5930;DHT22;2990;48.746;9.236;2023-07-08T18:25:19;29.40;1.00
5930;DHT22;2990;48.746;9.236;2023-07-08T18:27:46;29.40;1.00
5930;DHT22;2990;48.746;9.236;2023-07-08T18:30:14;29.40;1.00
5930;DHT22;2990;48.746;9.236;2023-07-08T18:32:40;29.30;1.00
5930;DHT22;2990;48.746;9.236;2023-07-08T18:35:23;29.20;1.00
5930;DHT22;2990;48.746;9.236;2023-07-08T18:37:50;29.20;1.00
5930;DHT22;2990;48.746;9.236;2023-07-08T18:40:18;29.10;1.00
5930;DHT22;2990;48.746;9.236;2023-07-08T18:43:10;29.10;1.00
5930;DHT22;2990;48.746;9.236;2023-07-08T18:45:37;29.00;1.00
5930;DHT22;2990;48.746;9.236;2023-07-08T18:48:03;28.80;1.00
5930;DHT22;2990;48.746;9.236;2023-07-08T18:50:29;28.90;1.00
5930;DHT22;2990;48.746;9.236;2023-07-08T18:52:55;28.70;1.00
5930;DHT22;2990;48.746;9.236;2023-07-08T18:55:24;28.70;1.00
5930;DHT22;2990;48.746;9.236;2023-07-08T18:57:51;28.70;1.00
5930;DHT22;2990;48.746;9.236;2023-07-08T19:00:18;28.70;1.00
5930;DHT22;2990;48.746;9.236;2023-07-08T19:02:52;28.50;1.00
5930;DHT22;2990;48.746;9.236;2023-07-08T19:05:19;28.40;1.00
5930;DHT22;2990;48.746;9.236;2023-07-08T19:07:45;28.40;1.00
5930;DHT22;2990;48.746;9.236;2023-07-08T19:10:12;28.30;1.00
5930;DHT22;2990;48.746;9.236;2023-07-08T19:12:45;28.20;1.00
5930;DHT22;2990;48.746;9.236;2023-07-08T19:15:30;28.10;1.00
5930;DHT22;2990;48.746;9.236;2023-07-08T19:17:57;28.10;1.00
5930;DHT22;2990;48.746;9.236;2023-07-08T19:20:34;27.90;1.00